Time;durP1;ratioP1;P1;durP2;ratioP2;P2;SDS_P1;SDS_P2;PMS_P1;PMS_P2;Temp;Humidity;BMP_temperature;BMP_pressure;BME280_temperature;BME280_humidity;BME280_pressure;Samples;Min_cycle;Max_cycle;Signal;HPM_P1;HPM_P2
2022/08/24 00:04:03;;;;;;;;;;;;;;;22.78;100.00;100616.06;12887990;23;20003;-75
2022/08/24 00:09:06;;;;;;;;;;;;;;;22.69;100.00;100616.56;12868764;23;19919;-72
2022/08/24 00:14:11;;;;;;;;;;;;;;;22.67;100.00;100617.59;12888539;23;20007;-72
2022/08/24 00:19:14;;;;;;;;;;;;;;;22.60;100.00;100606.50;12888683;23;19990;-72
2022/08/24 00:24:17;;;;;;;;;;;;;;;22.55;100.00;100613.00;12885390;23;20003;-74
2022/08/24 00:29:22;;;;;;;;;;;;;;;22.48;100.00;100612.44;12888116;23;19996;-75
2022/08/24 00:34:26;;;;;;;;;;;;;;;22.46;100.00;100613.47;12888759;23;19927;-72
2022/08/24 00:39:29;;;;;;;;;;;;;;;22.42;100.00;100609.25;12887948;23;19939;-73
2022/08/24 00:44:34;;;;;;;;;;;;;;;22.37;100.00;100609.53;12888667;23;19920;-73
2022/08/24 00:49:39;;;;;;;;;;;;;;;22.37;100.00;100606.88;12889388;23;19951;-72
2022/08/24 00:54:43;;;;;;;;;;;;;;;22.32;100.00;100610.69;12887796;23;19940;-74
2022/08/24 00:59:53;;;;;;;;;;;;;;;22.33;100.00;100604.50;12887401;23;20353;-70
2022/08/24 01:04:57;;;;;;;;;;;;;;;22.30;100.00;100607.28;12887114;23;19995;-72
2022/08/24 01:10:02;;;;;;;;;;;;;;;22.25;100.00;100618.13;12886988;23;19940;-71
2022/08/24 01:15:09;;;;;;;;;;;;;;;22.19;100.00;100615.81;12867793;23;19951;-74
2022/08/24 01:20:12;;;;;;;;;;;;;;;22.20;100.00;100625.44;12887042;23;19951;-73
2022/08/24 01:25:17;;;;;;;;;;;;;;;22.19;100.00;100626.41;12867576;23;19948;-72
2022/08/24 01:30:20;;;;;;;;;;;;;;;22.15;100.00;100624.84;12886931;23;19989;-74
2022/08/24 01:35:33;;;;;;;;;;;;;;;22.10;100.00;100626.88;12867833;23;19938;-71
2022/08/24 01:40:40;;;;;;;;;;;;;;;22.08;100.00;100636.69;12885373;23;19944;-73
2022/08/24 01:45:43;;;;;;;;;;;;;;;22.09;100.00;100634.91;12867752;23;19995;-73
2022/08/24 01:50:46;;;;;;;;;;;;;;;22.07;100.00;100642.06;12885525;23;20019;-74
2022/08/24 01:55:51;;;;;;;;;;;;;;;22.02;100.00;100639.63;12867738;23;19994;-74
2022/08/24 02:00:54;;;;;;;;;;;;;;;22.01;100.00;100640.56;12866676;23;19994;-71
2022/08/24 02:05:57;;;;;;;;;;;;;;;21.97;100.00;100641.66;12866640;23;20057;-74
2022/08/24 02:11:02;;;;;;;;;;;;;;;21.95;100.00;100662.03;12866670;23;19986;-70
2022/08/24 02:16:05;;;;;;;;;;;;;;;21.90;100.00;100677.28;12885156;23;19951;-70
2022/08/24 02:21:09;;;;;;;;;;;;;;;21.99;100.00;100670.66;12866338;23;19944;-73
2022/08/24 02:26:13;;;;;;;;;;;;;;;21.96;100.00;100671.69;12874170;23;20363;-73
2022/08/24 02:31:17;;;;;;;;;;;;;;;21.98;100.00;100679.53;12884566;23;19947;-72
2022/08/24 02:36:22;;;;;;;;;;;;;;;22.00;100.00;100672.38;12884568;23;19954;-73
2022/08/24 02:41:29;;;;;;;;;;;;;;;21.99;100.00;100675.94;12866571;23;19919;-71
2022/08/24 02:46:32;;;;;;;;;;;;;;;22.03;100.00;100672.22;12866071;23;20019;-71
2022/08/24 02:51:35;;;;;;;;;;;;;;;22.02;100.00;100676.66;12866476;23;19951;-73
2022/08/24 02:56:48;;;;;;;;;;;;;;;22.04;100.00;100669.50;12866233;23;19951;-71
2022/08/24 03:01:51;;;;;;;;;;;;;;;22.10;100.00;100670.97;12866166;23;19920;-72
2022/08/24 03:06:54;;;;;;;;;;;;;;;22.06;100.00;100661.47;12865781;23;20275;-72
2022/08/24 03:11:59;;;;;;;;;;;;;;;22.06;100.00;100672.91;12866008;23;20362;-72
2022/08/24 03:17:02;;;;;;;;;;;;;;;22.09;100.00;100664.81;12865708;23;19990;-73
2022/08/24 03:22:05;;;;;;;;;;;;;;;22.02;100.00;100674.00;12883295;23;20022;-74
2022/08/24 03:27:10;;;;;;;;;;;;;;;22.00;100.00;100675.03;12870054;23;20292;-72
2022/08/24 03:32:13;;;;;;;;;;;;;;;22.03;100.00;100675.72;12883459;23;19983;-74
2022/08/24 03:37:16;;;;;;;;;;;;;;;22.03;100.00;100682.78;12885185;23;19991;-71
2022/08/24 03:42:20;;;;;;;;;;;;;;;22.08;100.00;100680.75;12869536;23;19931;-74
2022/08/24 03:47:23;;;;;;;;;;;;;;;22.11;100.00;100691.19;12887291;23;19943;-73
2022/08/24 03:52:26;;;;;;;;;;;;;;;22.10;100.00;100694.75;12869197;23;20291;-73
2022/08/24 03:57:36;;;;;;;;;;;;;;;22.11;100.00;100691.19;12887723;23;19991;-72
2022/08/24 04:02:39;;;;;;;;;;;;;;;22.11;100.00;100694.69;12868882;23;19920;-70
2022/08/24 04:07:42;;;;;;;;;;;;;;;22.16;100.00;100699.75;12869658;23;19994;-72
2022/08/24 04:12:47;;;;;;;;;;;;;;;22.13;100.00;100695.47;12869658;23;19931;-73
2022/08/24 04:17:50;;;;;;;;;;;;;;;22.16;100.00;100705.88;12886660;23;19920;-73
2022/08/24 04:22:53;;;;;;;;;;;;;;;22.14;100.00;100714.84;12886474;23;19955;-73
2022/08/24 04:27:57;;;;;;;;;;;;;;;22.18;100.00;100717.22;12868377;23;20311;-73
2022/08/24 04:33:01;;;;;;;;;;;;;;;22.22;100.00;100725.88;12868580;23;19943;-75
2022/08/24 04:38:05;;;;;;;;;;;;;;;22.20;100.00;100725.09;12886393;23;20042;-72
2022/08/24 04:43:09;;;;;;;;;;;;;;;22.23;100.00;100728.41;12868813;23;19919;-73
2022/08/24 04:48:13;;;;;;;;;;;;;;;22.22;100.00;100739.94;12886325;23;20287;-72
2022/08/24 04:53:16;;;;;;;;;;;;;;;22.18;100.00;100748.09;12868521;23;19920;-73
2022/08/24 04:58:20;;;;;;;;;;;;;;;22.21;100.00;100747.97;12886713;23;20353;-73
2022/08/24 05:03:23;;;;;;;;;;;;;;;22.25;100.00;100736.28;12886406;23;20219;-75
2022/08/24 05:08:27;;;;;;;;;;;;;;;22.28;100.00;100741.44;12879346;23;19999;-65
2022/08/24 05:13:31;;;;;;;;;;;;;;;22.32;100.00;100735.88;12860968;23;19920;-68
2022/08/24 05:18:34;;;;;;;;;;;;;;;22.35;100.00;100729.56;12879218;23;20005;-66
2022/08/24 05:23:38;;;;;;;;;;;;;;;22.40;100.00;100732.84;12860106;23;20003;-70
2022/08/24 05:28:47;;;;;;;;;;;;;;;22.49;100.00;100740.28;12876529;23;19935;-72
2022/08/24 05:33:50;;;;;;;;;;;;;;;22.50;100.00;100745.50;12859900;23;20227;-68
2022/08/24 05:38:55;;;;;;;;;;;;;;;22.44;100.00;100740.53;12860425;23;20383;-74
2022/08/24 05:44:00;;;;;;;;;;;;;;;22.46;100.00;100751.91;12859404;23;20019;-69
2022/08/24 05:49:08;;;;;;;;;;;;;;;22.53;100.00;100752.41;12877789;23;19979;-72
2022/08/24 05:54:12;;;;;;;;;;;;;;;22.56;100.00;100737.28;12859955;23;20018;-73
2022/08/24 05:59:18;;;;;;;;;;;;;;;22.64;100.00;100735.06;12860494;23;19947;-72
2022/08/24 06:04:21;;;;;;;;;;;;;;;22.60;100.00;100722.94;12878443;23;20027;-73
2022/08/24 06:09:26;;;;;;;;;;;;;;;22.71;100.00;100725.84;12859187;23;19951;-76
2022/08/24 06:14:31;;;;;;;;;;;;;;;22.76;100.00;100717.69;12879502;23;20025;-73
2022/08/24 06:19:35;;;;;;;;;;;;;;;22.89;100.00;100727.53;12861777;23;19998;-73
2022/08/24 06:30:04;;;;;;;;;;;;;;;23.01;100.00;100728.63;12877535;23;20051;-72
2022/08/24 06:35:10;;;;;;;;;;;;;;;23.08;100.00;100727.34;12860384;23;20295;-72
2022/08/24 06:40:13;;;;;;;;;;;;;;;23.19;100.00;100730.28;12858993;23;20287;-73
2022/08/24 06:45:18;;;;;;;;;;;;;;;23.26;100.00;100744.03;12859595;23;19962;-74
2022/08/24 06:50:21;;;;;;;;;;;;;;;23.39;100.00;100747.72;12858574;23;20003;-69
2022/08/24 06:55:26;;;;;;;;;;;;;;;23.48;100.00;100745.41;12858435;23;19931;-68
2022/08/24 07:00:30;;;;;;;;;;;;;;;23.50;100.00;100753.28;12876802;23;19943;-66
2022/08/24 07:05:35;;;;;;;;;;;;;;;23.72;100.00;100759.03;12877607;23;19998;-71
2022/08/24 07:10:41;;;;;;;;;;;;;;;23.82;100.00;100757.56;12877195;23;19958;-67
2022/08/24 07:15:46;;;;;;;;;;;;;;;23.96;100.00;100765.56;12864254;23;20013;-69
2022/08/24 07:20:49;;;;;;;;;;;;;;;23.99;100.00;100763.63;12887115;23;19951;-70
2022/08/24 07:25:52;;;;;;;;;;;;;;;24.11;100.00;100770.00;12879585;23;20077;-67
2022/08/24 07:31:00;;;;;;;;;;;;;;;24.21;100.00;100768.53;12888365;23;19983;-68
2022/08/24 07:36:03;;;;;;;;;;;;;;;24.30;100.00;100769.78;12869431;23;19920;-66
2022/08/24 07:41:06;;;;;;;;;;;;;;;24.36;100.00;100766.75;12888213;23;19955;-69
2022/08/24 07:46:31;;;;;;;;;;;;;;;24.43;100.00;100766.28;12869931;23;19955;-66
2022/08/24 07:51:34;;;;;;;;;;;;;;;24.48;100.00;100774.81;12887208;23;19940;-72
2022/08/24 07:56:37;;;;;;;;;;;;;;;24.53;100.00;100767.44;12887051;23;19924;-66
2022/08/24 08:01:42;;;;;;;;;;;;;;;24.67;100.00;100770.09;12869225;23;19944;-67
2022/08/24 08:06:45;;;;;;;;;;;;;;;24.75;100.00;100772.28;12869588;23;19994;-68
2022/08/24 08:11:48;;;;;;;;;;;;;;;24.86;100.00;100778.69;12869845;23;19948;-71
2022/08/24 08:16:52;;;;;;;;;;;;;;;25.02;100.00;100775.91;12868682;23;19991;-69
2022/08/24 08:27:16;;;;;;;;;;;;;;;25.27;100.00;100775.19;12872632;23;20007;-71
2022/08/24 08:32:20;;;;;;;;;;;;;;;25.39;100.00;100782.41;12862023;23;19920;-71
2022/08/24 08:37:24;;;;;;;;;;;;;;;25.47;100.00;100794.25;12860983;23;19959;-69
2022/08/24 08:42:39;;;;;;;;;;;;;;;25.54;100.00;100797.41;12861612;23;19928;-69
2022/08/24 08:47:58;;;;;;;;;;;;;;;25.61;99.85;100786.25;12861401;23;20015;-71
2022/08/24 08:53:22;;;;;;;;;;;;;;;25.68;99.18;100792.03;12877690;23;19920;-70
2022/08/24 08:58:36;;;;;;;;;;;;;;;25.73;98.38;100798.72;12861087;23;19999;-75
2022/08/24 09:03:59;;;;;;;;;;;;;;;25.83;97.46;100801.66;12876096;23;19958;-73
2022/08/24 09:09:09;;;;;;;;;;;;;;;25.96;96.22;100792.75;12861718;23;19955;-70
2022/08/24 09:14:26;;;;;;;;;;;;;;;26.09;95.43;100795.50;12874355;23;19955;-72
2022/08/24 09:19:39;;;;;;;;;;;;;;;26.18;95.57;100792.19;12873518;23;20231;-71
2022/08/24 09:24:56;;;;;;;;;;;;;;;26.27;95.74;100788.91;12872164;23;20272;-70
2022/08/24 09:30:05;;;;;;;;;;;;;;;26.44;94.89;100788.63;12858774;23;20260;-72
2022/08/24 09:35:13;;;;;;;;;;;;;;;26.54;93.86;100781.69;12878029;23;19923;-74
2022/08/24 09:40:44;;;;;;;;;;;;;;;26.66;92.30;100783.50;12877390;23;19935;-70
2022/08/24 09:46:08;;;;;;;;;;;;;;;26.91;90.03;100780.88;12876178;23;19962;-72
2022/08/24 09:51:26;;;;;;;;;;;;;;;27.17;87.85;100782.53;12819383;23;19950;-74
2022/08/24 09:56:39;;;;;;;;;;;;;;;29.13;77.99;100786.19;12843636;23;20327;-72
2022/08/24 10:01:45;;;;;;;;;;;;;;;29.29;75.65;100781.31;12866135;23;19920;-72
2022/08/24 10:06:54;;;;;;;;;;;;;;;29.19;74.95;100780.38;12866778;23;20107;-74
2022/08/24 10:12:02;;;;;;;;;;;;;;;29.27;75.91;100769.91;12873017;23;19944;-75
2022/08/24 10:17:10;;;;;;;;;;;;;;;29.33;75.51;100774.75;12872417;23;19952;-71
2022/08/24 10:22:19;;;;;;;;;;;;;;;29.31;75.34;100774.03;12872209;23;20015;-73
2022/08/24 10:27:33;;;;;;;;;;;;;;;29.42;74.60;100773.16;12869745;23;20267;-75
2022/08/24 10:32:48;;;;;;;;;;;;;;;29.46;73.54;100769.25;12871054;23;20296;-73
2022/08/24 10:43:53;;;;;;;;;;;;;;;29.30;74.59;100769.63;12825768;23;20307;-73
2022/08/24 10:49:04;;;;;;;;;;;;;;;29.00;75.11;100769.41;12880279;23;19966;-73
2022/08/24 10:54:10;;;;;;;;;;;;;;;28.88;74.51;100767.72;12880539;23;20013;-72
2022/08/24 10:59:18;;;;;;;;;;;;;;;28.84;74.68;100766.25;12879922;23;20315;-73
2022/08/24 11:04:26;;;;;;;;;;;;;;;28.83;74.15;100763.69;12879698;23;20002;-72
2022/08/24 11:09:42;;;;;;;;;;;;;;;28.90;72.70;100762.25;12879518;23;20340;-75
2022/08/24 11:14:48;;;;;;;;;;;;;;;29.16;72.62;100761.03;12859074;23;19978;-72
2022/08/24 11:19:51;;;;;;;;;;;;;;;29.24;71.26;100759.44;12860221;23;19991;-73
2022/08/24 11:24:57;;;;;;;;;;;;;;;29.45;70.52;100763.06;12879550;23;19999;-72
2022/08/24 11:30:05;;;;;;;;;;;;;;;29.66;69.68;100767.63;12886431;23;19970;-74
2022/08/24 11:35:14;;;;;;;;;;;;;;;30.28;68.42;100764.09;12886013;23;20299;-73
2022/08/24 11:40:19;;;;;;;;;;;;;;;31.15;67.67;100758.19;12885363;23;19949;-72
2022/08/24 11:45:29;;;;;;;;;;;;;;;31.42;66.06;100763.81;12865871;23;19947;-74
2022/08/24 11:50:35;;;;;;;;;;;;;;;31.67;66.36;100749.84;12885354;23;19986;-72
2022/08/24 11:55:40;;;;;;;;;;;;;;;31.96;66.58;100762.47;12885547;23;20283;-72
2022/08/24 12:00:54;;;;;;;;;;;;;;;32.27;64.42;100750.56;12887559;23;20054;-76
2022/08/24 12:06:00;;;;;;;;;;;;;;;32.31;65.13;100749.25;12888237;23;19951;-75
2022/08/24 12:11:08;;;;;;;;;;;;;;;32.48;63.97;100743.19;12869423;23;19920;-73
2022/08/24 12:16:16;;;;;;;;;;;;;;;32.57;62.63;100736.91;12888014;23;19955;-73
2022/08/24 12:21:21;;;;;;;;;;;;;;;32.70;61.68;100748.22;12887987;23;19950;-72
2022/08/24 12:26:26;;;;;;;;;;;;;;;32.94;60.11;100734.25;12868153;23;19956;-74
2022/08/24 12:31:36;;;;;;;;;;;;;;;32.95;60.60;100730.56;12868295;23;19986;-70
2022/08/24 12:36:44;;;;;;;;;;;;;;;33.09;59.37;100733.63;12888061;23;19940;-71
2022/08/24 12:41:54;;;;;;;;;;;;;;;33.16;59.74;100723.09;12886370;23;19999;-72
2022/08/24 12:46:59;;;;;;;;;;;;;;;33.13;59.26;100731.47;12886192;23;19998;-71
2022/08/24 12:52:13;;;;;;;;;;;;;;;33.36;59.55;100719.28;12867536;23;19919;-72
2022/08/24 12:57:28;;;;;;;;;;;;;;;34.36;56.78;100720.72;12841635;23;19920;-73
2022/08/24 13:02:36;;;;;;;;;;;;;;;35.17;53.99;100716.59;12884409;23;19996;-74
2022/08/24 13:07:48;;;;;;;;;;;;;;;35.34;52.60;100724.59;12883822;23;20030;-75
2022/08/24 13:13:09;;;;;;;;;;;;;;;35.11;52.80;100718.09;12867564;23;19990;-74
2022/08/24 13:18:42;;;;;;;;;;;;;;;34.80;54.13;100725.03;12878119;23;19966;-75
2022/08/24 13:23:46;;;;;;;;;;;;;;;34.24;56.00;100724.69;12710943;23;20211;-73
2022/08/24 13:28:52;;;;;;;;;;;;;;;33.93;56.83;100724.25;12873548;23;20003;-76
2022/08/24 13:34:00;;;;;;;;;;;;;;;33.49;54.65;100720.63;12873949;23;19944;-74
2022/08/24 13:39:11;;;;;;;;;;;;;;;33.34;57.62;100723.97;12862699;23;20337;-72
2022/08/24 13:44:21;;;;;;;;;;;;;;;33.23;58.72;100730.41;12862389;23;19935;-72
2022/08/24 13:49:37;;;;;;;;;;;;;;;33.06;59.04;100725.00;12873676;23;19978;-73
2022/08/24 13:54:57;;;;;;;;;;;;;;;32.87;58.98;100733.13;12871154;23;20295;-74
2022/08/24 14:00:16;;;;;;;;;;;;;;;32.67;60.09;100743.97;12870534;23;20331;-72
2022/08/24 14:05:27;;;;;;;;;;;;;;;32.54;60.05;100748.84;12869588;23;19939;-75
2022/08/24 14:10:38;;;;;;;;;;;;;;;32.29;59.69;100737.84;12869299;23;20256;-74
2022/08/24 14:15:48;;;;;;;;;;;;;;;31.93;59.00;100734.06;12868883;23;19943;-70
2022/08/24 14:21:01;;;;;;;;;;;;;;;31.62;59.90;100727.94;12833426;23;20027;-73
2022/08/24 14:26:22;;;;;;;;;;;;;;;31.55;59.76;100728.63;12867437;23;20031;-72
2022/08/24 14:31:28;;;;;;;;;;;;;;;31.44;57.96;100732.28;12859146;23;20023;-73
2022/08/24 14:36:43;;;;;;;;;;;;;;;31.29;58.57;100730.97;12858797;23;20208;-70
2022/08/24 14:41:50;;;;;;;;;;;;;;;31.15;59.65;100733.22;12865886;23;20287;-74
2022/08/24 14:47:00;;;;;;;;;;;;;;;30.99;62.74;100725.69;12865119;23;20228;-73
2022/08/24 14:52:09;;;;;;;;;;;;;;;30.87;64.74;100729.47;12865419;23;19924;-73
2022/08/24 14:57:31;;;;;;;;;;;;;;;30.74;66.21;100726.13;12864879;23;20291;-72
2022/08/24 15:02:44;;;;;;;;;;;;;;;30.59;69.98;100731.00;12859298;23;20026;-71
2022/08/24 15:07:52;;;;;;;;;;;;;;;30.40;66.50;100724.69;12864558;23;20316;-70
2022/08/24 15:12:58;;;;;;;;;;;;;;;29.93;67.95;100736.75;12864804;23;19987;-72
2022/08/24 15:18:14;;;;;;;;;;;;;;;29.51;69.72;100725.09;12864106;23;19989;-68
2022/08/24 15:23:21;;;;;;;;;;;;;;;29.24;70.13;100743.41;12863161;23;20019;-71
2022/08/24 15:28:26;;;;;;;;;;;;;;;29.19;69.77;100750.94;12862131;23;20082;-73
2022/08/24 15:33:31;;;;;;;;;;;;;;;29.19;69.20;100739.41;12859873;23;19944;-69
2022/08/24 15:38:35;;;;;;;;;;;;;;;29.08;69.18;100728.69;12862750;23;20235;-70
2022/08/24 15:43:40;;;;;;;;;;;;;;;29.05;69.54;100736.94;12862144;23;20011;-67
2022/08/24 15:48:46;;;;;;;;;;;;;;;28.90;69.76;100720.34;12862767;23;20007;-68
2022/08/24 15:53:49;;;;;;;;;;;;;;;28.79;71.10;100725.69;12866862;23;20363;-68
2022/08/24 15:58:52;;;;;;;;;;;;;;;28.63;71.72;100727.84;12861975;23;19999;-70
2022/08/24 16:03:58;;;;;;;;;;;;;;;28.59;71.88;100731.75;12861845;23;20009;-67
2022/08/24 16:09:02;;;;;;;;;;;;;;;28.55;72.58;100734.78;12867572;23;19998;-69
2022/08/24 16:14:10;;;;;;;;;;;;;;;28.50;72.48;100744.94;12861642;23;19920;-70
2022/08/24 16:19:23;;;;;;;;;;;;;;;28.43;72.57;100755.25;12867114;23;20381;-69
2022/08/24 16:24:30;;;;;;;;;;;;;;;28.36;73.43;100762.03;12861717;23;19995;-69
2022/08/24 16:29:53;;;;;;;;;;;;;;;28.41;73.31;100770.53;12861730;23;20021;-71
2022/08/24 16:35:14;;;;;;;;;;;;;;;28.49;73.17;100784.19;12862324;23;19928;-70
2022/08/24 16:40:17;;;;;;;;;;;;;;;28.46;73.88;100787.06;12865056;23;19943;-69
2022/08/24 16:45:21;;;;;;;;;;;;;;;28.47;75.14;100786.13;12863696;23;19995;-69
2022/08/24 16:50:25;;;;;;;;;;;;;;;28.33;76.50;100776.50;12862182;23;20338;-68
2022/08/24 16:55:29;;;;;;;;;;;;;;;28.28;77.93;100772.47;12860931;23;19955;-64
2022/08/24 17:00:32;;;;;;;;;;;;;;;28.22;78.56;100778.25;12860970;23;20252;-68
2022/08/24 17:05:37;;;;;;;;;;;;;;;28.17;78.38;100777.78;12861328;23;20280;-62
2022/08/24 17:10:42;;;;;;;;;;;;;;;28.08;78.34;100775.78;12864142;23;19989;-61
2022/08/24 17:15:45;;;;;;;;;;;;;;;28.04;77.73;100779.69;12860876;23;19962;-68
2022/08/24 17:20:56;;;;;;;;;;;;;;;27.97;76.74;100779.31;12861280;23;19924;-65
2022/08/24 17:26:00;;;;;;;;;;;;;;;27.90;76.81;100780.69;12859863;23;20003;-64
2022/08/24 17:31:04;;;;;;;;;;;;;;;27.85;77.22;100800.69;12860026;23;19931;-62
2022/08/24 17:36:09;;;;;;;;;;;;;;;27.78;77.25;100799.44;12860596;23;19952;-64
2022/08/24 17:41:17;;;;;;;;;;;;;;;27.70;76.89;100807.16;12860876;23;19990;-65
2022/08/24 17:46:21;;;;;;;;;;;;;;;27.65;76.69;100812.81;12859765;23;20228;-62
2022/08/24 17:51:25;;;;;;;;;;;;;;;27.61;76.56;100823.84;12859648;23;20302;-64
2022/08/24 17:56:30;;;;;;;;;;;;;;;27.52;76.81;100837.81;12859334;23;20018;-66
2022/08/24 18:01:33;;;;;;;;;;;;;;;27.46;76.72;100828.44;12861012;23;20303;-64
2022/08/24 18:06:38;;;;;;;;;;;;;;;27.41;77.68;100835.06;12862181;23;20005;-67
2022/08/24 18:11:41;;;;;;;;;;;;;;;27.35;78.39;100851.53;12861512;23;20007;-62
2022/08/24 18:16:44;;;;;;;;;;;;;;;27.24;80.51;100855.78;12859812;23;19998;-63
2022/08/24 18:21:57;;;;;;;;;;;;;;;27.12;82.37;100855.78;12863875;23;19943;-65
2022/08/24 18:27:01;;;;;;;;;;;;;;;27.00;84.59;100856.66;12858737;23;19998;-66
2022/08/24 18:32:12;;;;;;;;;;;;;;;26.91;85.48;100871.47;12863978;23;20011;-65
2022/08/24 18:37:16;;;;;;;;;;;;;;;26.85;87.11;100871.88;12859108;23;20270;-63
2022/08/24 18:42:20;;;;;;;;;;;;;;;26.81;88.00;100869.53;12859186;23;19974;-71
2022/08/24 18:47:23;;;;;;;;;;;;;;;26.80;86.93;100870.53;12859812;23;19931;-73
2022/08/24 18:52:27;;;;;;;;;;;;;;;26.80;86.97;100878.50;12859098;23;20315;-73
2022/08/24 18:57:30;;;;;;;;;;;;;;;26.78;88.04;100881.28;12858918;23;20014;-73
2022/08/24 19:02:35;;;;;;;;;;;;;;;26.76;88.42;100883.19;12859490;23;19986;-74
2022/08/24 19:07:40;;;;;;;;;;;;;;;26.73;89.16;100882.56;12861830;23;19920;-72
2022/08/24 19:12:44;;;;;;;;;;;;;;;26.71;90.78;100890.66;12865484;23;19931;-72
2022/08/24 19:17:48;;;;;;;;;;;;;;;26.65;89.69;100912.31;12866157;23;19999;-73
2022/08/24 19:22:53;;;;;;;;;;;;;;;26.62;86.14;100909.88;12866088;23;19947;-73
2022/08/24 19:27:57;;;;;;;;;;;;;;;26.60;85.20;100909.13;12866532;23;20007;-75
2022/08/24 19:33:01;;;;;;;;;;;;;;;26.57;84.40;100909.34;12868338;23;20030;-70
2022/08/24 19:38:05;;;;;;;;;;;;;;;26.61;84.18;100913.47;12867794;23;19968;-71
2022/08/24 19:43:08;;;;;;;;;;;;;;;26.58;84.10;100926.16;12866709;23;20278;-71
2022/08/24 19:48:12;;;;;;;;;;;;;;;26.55;84.34;100926.38;12865823;23;20003;-73
2022/08/24 19:53:16;;;;;;;;;;;;;;;26.37;85.14;100922.28;12865382;23;19982;-71
2022/08/24 19:58:22;;;;;;;;;;;;;;;26.28;85.99;100915.75;12865748;23;20304;-74
2022/08/24 20:03:25;;;;;;;;;;;;;;;26.23;86.08;100917.88;12872633;23;19963;-72
2022/08/24 20:08:30;;;;;;;;;;;;;;;26.17;86.41;100918.25;12865433;23;20034;-72
2022/08/24 20:13:33;;;;;;;;;;;;;;;26.12;86.59;100917.72;12865883;23;20299;-71
2022/08/24 20:18:37;;;;;;;;;;;;;;;26.08;86.39;100916.19;12864343;23;19924;-72
2022/08/24 20:23:42;;;;;;;;;;;;;;;26.00;86.34;100931.78;12862535;23;20286;-74
2022/08/24 20:28:46;;;;;;;;;;;;;;;25.77;86.00;100935.91;12869902;23;20007;-75
2022/08/24 20:33:51;;;;;;;;;;;;;;;25.50;87.10;100928.81;12861959;23;19998;-72
2022/08/24 20:38:57;;;;;;;;;;;;;;;25.41;86.75;100919.59;12861332;23;20015;-72
2022/08/24 20:44:00;;;;;;;;;;;;;;;25.33;86.43;100926.31;12862128;23;20000;-72
2022/08/24 20:49:05;;;;;;;;;;;;;;;25.25;86.53;100928.59;12862022;23;19924;-73
2022/08/24 20:54:10;;;;;;;;;;;;;;;25.22;86.76;100936.75;12863154;23;19920;-73
2022/08/24 20:59:14;;;;;;;;;;;;;;;25.19;86.90;100939.59;12863764;23;19968;-70
2022/08/24 21:04:17;;;;;;;;;;;;;;;25.13;87.16;100939.03;12863879;23;19948;-73
2022/08/24 21:09:22;;;;;;;;;;;;;;;25.09;87.91;100937.50;12862501;23;19998;-73
2022/08/24 21:14:25;;;;;;;;;;;;;;;25.10;88.21;100936.56;12861298;23;20007;-75
2022/08/24 21:19:29;;;;;;;;;;;;;;;25.09;88.78;100929.53;12861885;23;20267;-72
2022/08/24 21:24:33;;;;;;;;;;;;;;;25.02;89.35;100941.47;12860518;23;19951;-71
2022/08/24 21:29:38;;;;;;;;;;;;;;;24.97;90.26;100935.56;12869764;23;20008;-71
2022/08/24 21:34:41;;;;;;;;;;;;;;;24.94;91.19;100935.78;12860290;23;20030;-69
2022/08/24 21:39:46;;;;;;;;;;;;;;;24.84;92.59;100928.44;12860546;23;19958;-70
2022/08/24 21:44:50;;;;;;;;;;;;;;;24.74;93.86;100943.22;12870904;23;19954;-68
2022/08/24 21:49:53;;;;;;;;;;;;;;;24.60;95.35;100940.47;12859988;23;20383;-69
2022/08/24 21:54:58;;;;;;;;;;;;;;;24.49;96.39;100948.22;12859977;23;19955;-68
2022/08/24 22:00:01;;;;;;;;;;;;;;;24.41;97.48;100951.31;12860313;23;19930;-67
2022/08/24 22:05:04;;;;;;;;;;;;;;;24.24;99.50;100948.78;12860139;23;19958;-67
2022/08/24 22:10:10;;;;;;;;;;;;;;;24.13;100.00;100945.00;12859551;23;19930;-67
2022/08/24 22:15:15;;;;;;;;;;;;;;;23.98;100.00;100947.56;12870657;23;20322;-68
2022/08/24 22:20:21;;;;;;;;;;;;;;;24.00;100.00;100944.84;12870337;23;19999;-65
2022/08/24 22:25:26;;;;;;;;;;;;;;;23.95;100.00;100953.00;12860616;23;19930;-64
2022/08/24 22:30:31;;;;;;;;;;;;;;;23.79;100.00;100938.91;12862196;23;19991;-67
2022/08/24 22:35:38;;;;;;;;;;;;;;;23.84;100.00;100938.66;12861907;23;20304;-73
2022/08/24 22:40:52;;;;;;;;;;;;;;;23.82;100.00;100945.81;12860008;23;19939;-75
2022/08/24 22:45:55;;;;;;;;;;;;;;;23.77;100.00;100939.91;12870233;23;19987;-72
2022/08/24 22:50:58;;;;;;;;;;;;;;;23.78;100.00;100931.03;12858949;23;19947;-74
2022/08/24 22:56:03;;;;;;;;;;;;;;;23.72;100.00;100921.63;12859459;23;20003;-71
2022/08/24 23:01:06;;;;;;;;;;;;;;;23.73;100.00;100915.38;12859074;23;20014;-72
2022/08/24 23:06:09;;;;;;;;;;;;;;;23.66;100.00;100911.34;12859012;23;19991;-71
2022/08/24 23:11:13;;;;;;;;;;;;;;;23.59;100.00;100899.38;12859473;23;19924;-72
2022/08/24 23:16:17;;;;;;;;;;;;;;;23.64;100.00;100894.66;12859103;23;19948;-72
2022/08/24 23:21:20;;;;;;;;;;;;;;;23.57;100.00;100893.28;12858743;23;19951;-74
2022/08/24 23:26:25;;;;;;;;;;;;;;;23.57;100.00;100892.47;12858808;23;19998;-72
2022/08/24 23:31:29;;;;;;;;;;;;;;;23.61;100.00;100889.53;12858723;23;19924;-72
2022/08/24 23:36:32;;;;;;;;;;;;;;;23.58;100.00;100888.84;12858722;23;19924;-72
2022/08/24 23:41:38;;;;;;;;;;;;;;;23.60;100.00;100902.88;12858566;23;19999;-71
2022/08/24 23:46:44;;;;;;;;;;;;;;;23.59;100.00;100906.50;12871044;23;20002;-75
2022/08/24 23:51:47;;;;;;;;;;;;;;;23.56;100.00;100901.31;12858975;23;20284;-72
2022/08/24 23:56:52;;;;;;;;;;;;;;;23.53;100.00;100899.72;12864500;23;20304;-71
